sensor_id;sensor_type;location;lat;lon;timestamp;P1;durP1;ratioP1;P2;durP2;ratioP2
66468;SDS011;53288;55.922;37.720;2022-09-21T00:00:41;20.45;;;11.02;;
66468;SDS011;53288;55.922;37.720;2022-09-21T00:03:07;37.75;;;13.73;;
66468;SDS011;53288;55.922;37.720;2022-09-21T00:05:33;35.35;;;12.55;;
66468;SDS011;53288;55.922;37.720;2022-09-21T00:08:00;26.50;;;12.35;;
66468;SDS011;53288;55.922;37.720;2022-09-21T00:10:27;31.02;;;11.70;;
66468;SDS011;53288;55.922;37.720;2022-09-21T00:12:53;32.00;;;11.90;;
66468;SDS011;53288;55.922;37.720;2022-09-21T00:15:20;13.65;;;11.35;;
66468;SDS011;53288;55.922;37.720;2022-09-21T00:17:46;21.70;;;11.18;;
66468;SDS011;53288;55.922;37.720;2022-09-21T00:20:13;21.20;;;11.63;;
66468;SDS011;53288;55.922;37.720;2022-09-21T00:22:39;28.33;;;14.57;;
66468;SDS011;53288;55.922;37.720;2022-09-21T00:25:06;39.80;;;14.57;;
66468;SDS011;53288;55.922;37.720;2022-09-21T00:27:33;33.40;;;13.27;;
66468;SDS011;53288;55.922;37.720;2022-09-21T00:29:59;34.65;;;14.63;;
66468;SDS011;53288;55.922;37.720;2022-09-21T00:32:28;26.02;;;12.88;;
66468;SDS011;53288;55.922;37.720;2022-09-21T00:34:58;26.77;;;12.65;;
66468;SDS011;53288;55.922;37.720;2022-09-21T00:37:24;24.55;;;12.00;;
66468;SDS011;53288;55.922;37.720;2022-09-21T00:39:50;28.63;;;13.43;;
66468;SDS011;53288;55.922;37.720;2022-09-21T00:42:18;21.08;;;11.75;;
66468;SDS011;53288;55.922;37.720;2022-09-21T00:44:46;33.10;;;11.80;;
66468;SDS011;53288;55.922;37.720;2022-09-21T00:47:12;21.50;;;11.05;;
66468;SDS011;53288;55.922;37.720;2022-09-21T00:49:45;18.00;;;10.40;;
66468;SDS011;53288;55.922;37.720;2022-09-21T00:52:13;33.45;;;10.38;;
66468;SDS011;53288;55.922;37.720;2022-09-21T00:54:45;21.02;;;12.00;;
66468;SDS011;53288;55.922;37.720;2022-09-21T00:59:40;20.45;;;10.05;;
66468;SDS011;53288;55.922;37.720;2022-09-21T01:02:08;17.63;;;10.18;;
66468;SDS011;53288;55.922;37.720;2022-09-21T01:04:34;20.88;;;9.95;;
66468;SDS011;53288;55.922;37.720;2022-09-21T01:07:01;22.67;;;11.05;;
66468;SDS011;53288;55.922;37.720;2022-09-21T01:09:29;17.50;;;10.18;;
66468;SDS011;53288;55.922;37.720;2022-09-21T01:30:46;27.02;;;10.98;;
66468;SDS011;53288;55.922;37.720;2022-09-21T01:35:47;33.22;;;11.63;;
66468;SDS011;53288;55.922;37.720;2022-09-21T01:38:18;20.25;;;10.45;;
66468;SDS011;53288;55.922;37.720;2022-09-21T01:40:51;18.63;;;10.65;;
66468;SDS011;53288;55.922;37.720;2022-09-21T01:43:23;18.17;;;10.77;;
66468;SDS011;53288;55.922;37.720;2022-09-21T01:45:56;27.13;;;11.07;;
66468;SDS011;53288;55.922;37.720;2022-09-21T01:48:26;16.55;;;10.68;;
66468;SDS011;53288;55.922;37.720;2022-09-21T01:50:56;32.03;;;10.32;;
66468;SDS011;53288;55.922;37.720;2022-09-21T01:55:58;16.02;;;11.00;;
66468;SDS011;53288;55.922;37.720;2022-09-21T01:58:34;23.80;;;10.88;;
66468;SDS011;53288;55.922;37.720;2022-09-21T02:01:03;38.97;;;11.32;;
66468;SDS011;53288;55.922;37.720;2022-09-21T02:03:35;42.83;;;11.07;;
66468;SDS011;53288;55.922;37.720;2022-09-21T02:06:12;28.70;;;10.23;;
66468;SDS011;53288;55.922;37.720;2022-09-21T02:08:38;18.48;;;10.95;;
66468;SDS011;53288;55.922;37.720;2022-09-21T02:11:04;23.15;;;10.40;;
66468;SDS011;53288;55.922;37.720;2022-09-21T02:13:34;29.63;;;10.77;;
66468;SDS011;53288;55.922;37.720;2022-09-21T02:18:42;22.52;;;10.05;;
66468;SDS011;53288;55.922;37.720;2022-09-21T02:24:07;19.48;;;9.90;;
66468;SDS011;53288;55.922;37.720;2022-09-21T02:35:09;31.15;;;10.00;;
66468;SDS011;53288;55.922;37.720;2022-09-21T02:37:49;24.23;;;9.90;;
66468;SDS011;53288;55.922;37.720;2022-09-21T02:43:09;16.73;;;10.43;;
66468;SDS011;53288;55.922;37.720;2022-09-21T02:45:40;23.55;;;10.02;;
66468;SDS011;53288;55.922;37.720;2022-09-21T02:48:11;27.60;;;10.02;;
66468;SDS011;53288;55.922;37.720;2022-09-21T02:50:41;24.20;;;10.27;;
66468;SDS011;53288;55.922;37.720;2022-09-21T02:53:10;33.70;;;11.10;;
66468;SDS011;53288;55.922;37.720;2022-09-21T02:55:36;37.58;;;11.65;;
66468;SDS011;53288;55.922;37.720;2022-09-21T02:58:02;40.13;;;10.32;;
66468;SDS011;53288;55.922;37.720;2022-09-21T03:00:30;26.52;;;11.77;;
66468;SDS011;53288;55.922;37.720;2022-09-21T03:02:56;39.05;;;11.70;;
66468;SDS011;53288;55.922;37.720;2022-09-21T03:05:21;41.25;;;12.32;;
66468;SDS011;53288;55.922;37.720;2022-09-21T03:07:47;39.58;;;11.52;;
66468;SDS011;53288;55.922;37.720;2022-09-21T03:10:13;45.33;;;11.20;;
66468;SDS011;53288;55.922;37.720;2022-09-21T03:12:39;43.63;;;11.63;;
66468;SDS011;53288;55.922;37.720;2022-09-21T03:15:10;32.13;;;10.35;;
66468;SDS011;53288;55.922;37.720;2022-09-21T03:17:36;43.47;;;11.90;;
66468;SDS011;53288;55.922;37.720;2022-09-21T03:20:02;37.90;;;11.10;;
66468;SDS011;53288;55.922;37.720;2022-09-21T03:22:28;33.65;;;11.43;;
66468;SDS011;53288;55.922;37.720;2022-09-21T03:24:54;52.70;;;11.75;;
66468;SDS011;53288;55.922;37.720;2022-09-21T03:27:22;47.72;;;12.10;;
66468;SDS011;53288;55.922;37.720;2022-09-21T03:29:48;54.25;;;13.52;;
66468;SDS011;53288;55.922;37.720;2022-09-21T03:32:15;51.95;;;15.13;;
66468;SDS011;53288;55.922;37.720;2022-09-21T03:34:40;58.28;;;14.82;;
66468;SDS011;53288;55.922;37.720;2022-09-21T03:37:07;64.32;;;13.98;;
66468;SDS011;53288;55.922;37.720;2022-09-21T03:39:33;62.42;;;16.65;;
66468;SDS011;53288;55.922;37.720;2022-09-21T03:41:59;72.97;;;15.98;;
66468;SDS011;53288;55.922;37.720;2022-09-21T03:44:26;33.03;;;13.85;;
66468;SDS011;53288;55.922;37.720;2022-09-21T03:46:52;63.53;;;13.45;;
66468;SDS011;53288;55.922;37.720;2022-09-21T03:49:18;56.08;;;14.25;;
66468;SDS011;53288;55.922;37.720;2022-09-21T03:51:44;41.58;;;13.18;;
66468;SDS011;53288;55.922;37.720;2022-09-21T03:54:10;81.82;;;14.60;;
66468;SDS011;53288;55.922;37.720;2022-09-21T03:56:36;59.15;;;13.95;;
66468;SDS011;53288;55.922;37.720;2022-09-21T03:59:02;43.60;;;12.30;;
66468;SDS011;53288;55.922;37.720;2022-09-21T04:01:28;51.35;;;13.02;;
66468;SDS011;53288;55.922;37.720;2022-09-21T04:03:54;43.67;;;13.60;;
66468;SDS011;53288;55.922;37.720;2022-09-21T04:06:20;67.97;;;15.15;;
66468;SDS011;53288;55.922;37.720;2022-09-21T04:08:46;39.05;;;13.85;;
66468;SDS011;53288;55.922;37.720;2022-09-21T04:11:12;55.17;;;15.20;;
66468;SDS011;53288;55.922;37.720;2022-09-21T04:13:39;47.97;;;14.98;;
66468;SDS011;53288;55.922;37.720;2022-09-21T04:16:07;62.90;;;17.23;;
66468;SDS011;53288;55.922;37.720;2022-09-21T04:18:34;40.72;;;15.38;;
66468;SDS011;53288;55.922;37.720;2022-09-21T04:21:00;69.38;;;18.50;;
66468;SDS011;53288;55.922;37.720;2022-09-21T04:23:26;57.22;;;19.38;;
66468;SDS011;53288;55.922;37.720;2022-09-21T04:25:52;35.70;;;16.92;;
66468;SDS011;53288;55.922;37.720;2022-09-21T04:28:18;46.25;;;17.88;;
66468;SDS011;53288;55.922;37.720;2022-09-21T04:30:44;54.97;;;20.42;;
66468;SDS011;53288;55.922;37.720;2022-09-21T04:33:10;40.47;;;19.80;;
66468;SDS011;53288;55.922;37.720;2022-09-21T04:35:36;56.63;;;19.88;;
66468;SDS011;53288;55.922;37.720;2022-09-21T04:38:02;36.80;;;17.80;;
66468;SDS011;53288;55.922;37.720;2022-09-21T04:40:28;43.95;;;19.38;;
66468;SDS011;53288;55.922;37.720;2022-09-21T04:42:54;40.90;;;19.85;;
66468;SDS011;53288;55.922;37.720;2022-09-21T04:45:20;45.67;;;20.10;;
66468;SDS011;53288;55.922;37.720;2022-09-21T04:47:47;54.40;;;20.20;;
66468;SDS011;53288;55.922;37.720;2022-09-21T04:50:13;35.88;;;20.08;;
66468;SDS011;53288;55.922;37.720;2022-09-21T04:52:39;41.17;;;18.42;;
66468;SDS011;53288;55.922;37.720;2022-09-21T04:55:05;40.88;;;18.48;;
66468;SDS011;53288;55.922;37.720;2022-09-21T04:57:32;40.50;;;15.85;;
66468;SDS011;53288;55.922;37.720;2022-09-21T04:59:59;36.38;;;15.93;;
66468;SDS011;53288;55.922;37.720;2022-09-21T05:02:25;42.47;;;16.10;;
66468;SDS011;53288;55.922;37.720;2022-09-21T05:04:51;30.10;;;13.85;;
66468;SDS011;53288;55.922;37.720;2022-09-21T05:07:17;31.17;;;15.50;;
66468;SDS011;53288;55.922;37.720;2022-09-21T05:09:42;36.00;;;16.33;;
66468;SDS011;53288;55.922;37.720;2022-09-21T05:12:32;37.88;;;14.43;;
66468;SDS011;53288;55.922;37.720;2022-09-21T05:14:58;24.58;;;14.52;;
66468;SDS011;53288;55.922;37.720;2022-09-21T05:17:25;34.70;;;14.50;;
66468;SDS011;53288;55.922;37.720;2022-09-21T05:19:51;37.88;;;14.85;;
66468;SDS011;53288;55.922;37.720;2022-09-21T05:22:18;26.10;;;12.02;;
66468;SDS011;53288;55.922;37.720;2022-09-21T05:24:44;24.58;;;13.45;;
66468;SDS011;53288;55.922;37.720;2022-09-21T05:27:10;28.45;;;13.55;;
66468;SDS011;53288;55.922;37.720;2022-09-21T05:29:38;54.95;;;14.38;;
66468;SDS011;53288;55.922;37.720;2022-09-21T05:40:20;28.33;;;11.98;;
66468;SDS011;53288;55.922;37.720;2022-09-21T05:42:46;18.60;;;12.05;;
66468;SDS011;53288;55.922;37.720;2022-09-21T05:45:13;26.00;;;13.32;;
66468;SDS011;53288;55.922;37.720;2022-09-21T05:52:57;24.50;;;12.30;;
66468;SDS011;53288;55.922;37.720;2022-09-21T05:58:21;26.00;;;11.88;;
66468;SDS011;53288;55.922;37.720;2022-09-21T06:01:12;19.20;;;12.20;;
66468;SDS011;53288;55.922;37.720;2022-09-21T06:03:57;14.13;;;11.25;;
66468;SDS011;53288;55.922;37.720;2022-09-21T06:06:24;21.33;;;11.40;;
66468;SDS011;53288;55.922;37.720;2022-09-21T06:08:51;15.52;;;10.50;;
66468;SDS011;53288;55.922;37.720;2022-09-21T06:11:17;11.10;;;10.10;;
66468;SDS011;53288;55.922;37.720;2022-09-21T06:13:46;15.13;;;9.90;;
66468;SDS011;53288;55.922;37.720;2022-09-21T06:16:12;13.23;;;9.43;;
66468;SDS011;53288;55.922;37.720;2022-09-21T06:18:38;21.90;;;9.68;;
66468;SDS011;53288;55.922;37.720;2022-09-21T06:21:05;12.38;;;9.93;;
66468;SDS011;53288;55.922;37.720;2022-09-21T06:23:31;16.40;;;9.70;;
66468;SDS011;53288;55.922;37.720;2022-09-21T06:25:57;21.90;;;9.80;;
66468;SDS011;53288;55.922;37.720;2022-09-21T06:28:26;11.90;;;9.52;;
66468;SDS011;53288;55.922;37.720;2022-09-21T06:30:53;28.35;;;9.63;;
66468;SDS011;53288;55.922;37.720;2022-09-21T06:33:19;20.35;;;9.90;;
66468;SDS011;53288;55.922;37.720;2022-09-21T06:35:51;22.15;;;10.68;;
66468;SDS011;53288;55.922;37.720;2022-09-21T06:38:20;18.30;;;9.18;;
66468;SDS011;53288;55.922;37.720;2022-09-21T06:40:46;16.73;;;9.48;;
66468;SDS011;53288;55.922;37.720;2022-09-21T06:43:12;13.32;;;9.40;;
66468;SDS011;53288;55.922;37.720;2022-09-21T06:45:38;25.67;;;10.15;;
66468;SDS011;53288;55.922;37.720;2022-09-21T06:48:04;21.67;;;9.48;;
66468;SDS011;53288;55.922;37.720;2022-09-21T06:50:29;15.60;;;10.25;;
66468;SDS011;53288;55.922;37.720;2022-09-21T06:52:58;38.45;;;11.82;;
66468;SDS011;53288;55.922;37.720;2022-09-21T06:55:25;17.65;;;10.07;;
66468;SDS011;53288;55.922;37.720;2022-09-21T06:57:50;29.35;;;9.75;;
66468;SDS011;53288;55.922;37.720;2022-09-21T07:00:16;40.05;;;10.23;;
66468;SDS011;53288;55.922;37.720;2022-09-21T07:02:42;12.98;;;7.75;;
66468;SDS011;53288;55.922;37.720;2022-09-21T07:05:12;21.98;;;8.77;;
66468;SDS011;53288;55.922;37.720;2022-09-21T07:07:37;35.42;;;10.52;;
66468;SDS011;53288;55.922;37.720;2022-09-21T07:10:05;16.58;;;8.50;;
66468;SDS011;53288;55.922;37.720;2022-09-21T07:12:33;19.35;;;8.60;;
66468;SDS011;53288;55.922;37.720;2022-09-21T07:15:02;19.50;;;8.85;;
66468;SDS011;53288;55.922;37.720;2022-09-21T07:17:30;17.80;;;8.05;;
66468;SDS011;53288;55.922;37.720;2022-09-21T07:19:57;15.60;;;6.72;;
66468;SDS011;53288;55.922;37.720;2022-09-21T07:22:23;5.95;;;5.53;;
66468;SDS011;53288;55.922;37.720;2022-09-21T07:24:48;6.25;;;5.47;;
66468;SDS011;53288;55.922;37.720;2022-09-21T07:27:14;13.60;;;5.47;;
66468;SDS011;53288;55.922;37.720;2022-09-21T07:29:40;18.58;;;6.22;;
66468;SDS011;53288;55.922;37.720;2022-09-21T07:32:07;10.38;;;6.15;;
66468;SDS011;53288;55.922;37.720;2022-09-21T07:34:34;11.10;;;5.80;;
66468;SDS011;53288;55.922;37.720;2022-09-21T07:37:01;16.38;;;5.68;;
66468;SDS011;53288;55.922;37.720;2022-09-21T07:39:30;15.55;;;5.88;;
66468;SDS011;53288;55.922;37.720;2022-09-21T07:41:55;18.20;;;7.13;;
66468;SDS011;53288;55.922;37.720;2022-09-21T07:44:24;10.00;;;6.65;;
66468;SDS011;53288;55.922;37.720;2022-09-21T07:46:51;19.85;;;6.97;;
66468;SDS011;53288;55.922;37.720;2022-09-21T07:49:16;6.97;;;5.95;;
66468;SDS011;53288;55.922;37.720;2022-09-21T07:51:42;11.38;;;6.32;;
66468;SDS011;53288;55.922;37.720;2022-09-21T07:54:08;10.48;;;6.40;;
66468;SDS011;53288;55.922;37.720;2022-09-21T07:56:38;12.40;;;5.15;;
66468;SDS011;53288;55.922;37.720;2022-09-21T07:59:04;8.75;;;5.88;;
66468;SDS011;53288;55.922;37.720;2022-09-21T08:01:30;15.43;;;5.13;;
66468;SDS011;53288;55.922;37.720;2022-09-21T08:03:58;16.02;;;4.97;;
66468;SDS011;53288;55.922;37.720;2022-09-21T08:06:25;9.60;;;5.78;;
66468;SDS011;53288;55.922;37.720;2022-09-21T08:08:52;6.45;;;5.95;;
66468;SDS011;53288;55.922;37.720;2022-09-21T08:11:20;6.43;;;5.72;;
66468;SDS011;53288;55.922;37.720;2022-09-21T08:13:47;8.90;;;6.03;;
66468;SDS011;53288;55.922;37.720;2022-09-21T08:16:13;24.42;;;5.78;;
66468;SDS011;53288;55.922;37.720;2022-09-21T08:18:39;10.05;;;4.97;;
66468;SDS011;53288;55.922;37.720;2022-09-21T08:21:06;17.63;;;5.72;;
66468;SDS011;53288;55.922;37.720;2022-09-21T08:23:32;31.90;;;6.50;;
66468;SDS011;53288;55.922;37.720;2022-09-21T08:25:59;10.40;;;5.55;;
66468;SDS011;53288;55.922;37.720;2022-09-21T08:28:26;17.35;;;6.82;;
66468;SDS011;53288;55.922;37.720;2022-09-21T08:30:53;7.70;;;5.78;;
66468;SDS011;53288;55.922;37.720;2022-09-21T08:33:19;19.55;;;5.35;;
66468;SDS011;53288;55.922;37.720;2022-09-21T08:35:53;5.63;;;4.95;;
66468;SDS011;53288;55.922;37.720;2022-09-21T08:38:20;6.22;;;5.68;;
66468;SDS011;53288;55.922;37.720;2022-09-21T08:40:46;15.18;;;5.93;;
66468;SDS011;53288;55.922;37.720;2022-09-21T08:43:13;11.57;;;6.25;;
66468;SDS011;53288;55.922;37.720;2022-09-21T08:45:56;17.42;;;7.10;;
66468;SDS011;53288;55.922;37.720;2022-09-21T08:48:24;7.20;;;5.97;;
66468;SDS011;53288;55.922;37.720;2022-09-21T08:50:53;12.80;;;7.15;;
66468;SDS011;53288;55.922;37.720;2022-09-21T08:53:23;11.27;;;6.60;;
66468;SDS011;53288;55.922;37.720;2022-09-21T08:55:54;8.20;;;5.70;;
66468;SDS011;53288;55.922;37.720;2022-09-21T08:58:25;12.20;;;6.07;;
66468;SDS011;53288;55.922;37.720;2022-09-21T09:20:41;9.40;;;5.82;;
66468;SDS011;53288;55.922;37.720;2022-09-21T09:25:43;13.98;;;5.50;;
66468;SDS011;53288;55.922;37.720;2022-09-21T09:28:23;6.63;;;3.65;;
66468;SDS011;53288;55.922;37.720;2022-09-21T09:30:58;9.60;;;3.42;;
66468;SDS011;53288;55.922;37.720;2022-09-21T09:33:27;9.27;;;2.85;;
66468;SDS011;53288;55.922;37.720;2022-09-21T09:36:03;4.75;;;3.10;;
66468;SDS011;53288;55.922;37.720;2022-09-21T09:43:34;8.40;;;2.63;;
66468;SDS011;53288;55.922;37.720;2022-09-21T09:51:21;5.43;;;1.90;;
66468;SDS011;53288;55.922;37.720;2022-09-21T09:53:48;5.78;;;2.03;;
66468;SDS011;53288;55.922;37.720;2022-09-21T09:56:14;9.55;;;1.70;;
66468;SDS011;53288;55.922;37.720;2022-09-21T10:01:07;57.08;;;5.32;;
66468;SDS011;53288;55.922;37.720;2022-09-21T10:03:33;42.60;;;3.90;;
66468;SDS011;53288;55.922;37.720;2022-09-21T10:06:00;12.32;;;1.75;;
66468;SDS011;53288;55.922;37.720;2022-09-21T10:11:06;3.85;;;1.25;;
66468;SDS011;53288;55.922;37.720;2022-09-21T10:16:04;9.15;;;0.90;;
66468;SDS011;53288;55.922;37.720;2022-09-21T10:21:03;42.05;;;2.75;;
66468;SDS011;53288;55.922;37.720;2022-09-21T10:23:31;3.15;;;1.25;;
66468;SDS011;53288;55.922;37.720;2022-09-21T10:26:08;2.90;;;1.17;;
66468;SDS011;53288;55.922;37.720;2022-09-21T10:28:35;1.70;;;1.33;;
66468;SDS011;53288;55.922;37.720;2022-09-21T10:33:51;1.33;;;0.90;;
66468;SDS011;53288;55.922;37.720;2022-09-21T10:38:53;4.90;;;1.38;;
66468;SDS011;53288;55.922;37.720;2022-09-21T10:41:19;4.13;;;1.15;;
66468;SDS011;53288;55.922;37.720;2022-09-21T10:43:45;2.10;;;1.00;;
66468;SDS011;53288;55.922;37.720;2022-09-21T10:46:12;3.78;;;1.00;;
66468;SDS011;53288;55.922;37.720;2022-09-21T10:48:38;5.20;;;1.08;;
66468;SDS011;53288;55.922;37.720;2022-09-21T10:51:04;2.00;;;1.25;;
66468;SDS011;53288;55.922;37.720;2022-09-21T10:53:30;270.63;;;18.92;;
66468;SDS011;53288;55.922;37.720;2022-09-21T10:58:30;362.65;;;30.70;;
66468;SDS011;53288;55.922;37.720;2022-09-21T11:01:39;9.73;;;1.58;;
66468;SDS011;53288;55.922;37.720;2022-09-21T11:04:02;6.65;;;0.90;;
66468;SDS011;53288;55.922;37.720;2022-09-21T11:06:42;102.63;;;8.57;;
66468;SDS011;53288;55.922;37.720;2022-09-21T11:09:28;11.25;;;1.13;;
66468;SDS011;53288;55.922;37.720;2022-09-21T11:12:30;11.73;;;1.20;;
66468;SDS011;53288;55.922;37.720;2022-09-21T11:20:07;3.42;;;0.90;;
66468;SDS011;53288;55.922;37.720;2022-09-21T11:25:32;2.05;;;0.90;;
66468;SDS011;53288;55.922;37.720;2022-09-21T11:30:55;8.13;;;1.00;;
66468;SDS011;53288;55.922;37.720;2022-09-21T11:34:02;5.40;;;1.08;;
66468;SDS011;53288;55.922;37.720;2022-09-21T11:36:55;4.88;;;1.20;;
66468;SDS011;53288;55.922;37.720;2022-09-21T11:44:56;2.28;;;1.00;;
66468;SDS011;53288;55.922;37.720;2022-09-21T11:52:41;2.58;;;1.52;;
66468;SDS011;53288;55.922;37.720;2022-09-21T11:58:22;76.50;;;6.88;;
66468;SDS011;53288;55.922;37.720;2022-09-21T12:00:40;12.25;;;1.92;;
66468;SDS011;53288;55.922;37.720;2022-09-21T12:03:37;17.92;;;1.33;;
66468;SDS011;53288;55.922;37.720;2022-09-21T12:09:16;2.58;;;1.30;;
66468;SDS011;53288;55.922;37.720;2022-09-21T12:12:02;24.17;;;2.88;;
66468;SDS011;53288;55.922;37.720;2022-09-21T12:18:06;193.32;;;12.30;;
66468;SDS011;53288;55.922;37.720;2022-09-21T12:20:13;64.38;;;3.38;;
66468;SDS011;53288;55.922;37.720;2022-09-21T12:22:41;28.85;;;2.40;;
66468;SDS011;53288;55.922;37.720;2022-09-21T12:30:14;35.58;;;2.30;;
66468;SDS011;53288;55.922;37.720;2022-09-21T12:32:45;20.23;;;1.90;;
66468;SDS011;53288;55.922;37.720;2022-09-21T12:45:26;3.65;;;1.80;;
66468;SDS011;53288;55.922;37.720;2022-09-21T12:48:01;15.35;;;2.20;;
66468;SDS011;53288;55.922;37.720;2022-09-21T12:51:01;12.48;;;1.90;;
66468;SDS011;53288;55.922;37.720;2022-09-21T12:53:37;24.65;;;1.80;;
66468;SDS011;53288;55.922;37.720;2022-09-21T12:56:06;11.40;;;2.00;;
66468;SDS011;53288;55.922;37.720;2022-09-21T13:09:40;67.93;;;6.03;;
66468;SDS011;53288;55.922;37.720;2022-09-21T13:12:18;84.00;;;5.65;;
66468;SDS011;53288;55.922;37.720;2022-09-21T13:14:47;62.17;;;3.45;;
66468;SDS011;53288;55.922;37.720;2022-09-21T13:17:29;17.33;;;2.25;;
66468;SDS011;53288;55.922;37.720;2022-09-21T13:20:00;6.07;;;1.65;;
66468;SDS011;53288;55.922;37.720;2022-09-21T13:22:31;6.03;;;2.03;;
66468;SDS011;53288;55.922;37.720;2022-09-21T13:25:02;8.30;;;1.55;;
66468;SDS011;53288;55.922;37.720;2022-09-21T13:33:04;142.93;;;13.38;;
66468;SDS011;53288;55.922;37.720;2022-09-21T13:49:04;8.52;;;1.92;;
66468;SDS011;53288;55.922;37.720;2022-09-21T13:57:19;5.45;;;2.28;;
66468;SDS011;53288;55.922;37.720;2022-09-21T13:59:59;141.35;;;9.05;;
66468;SDS011;53288;55.922;37.720;2022-09-21T14:10:51;50.72;;;4.90;;
66468;SDS011;53288;55.922;37.720;2022-09-21T14:13:33;14.75;;;2.85;;
66468;SDS011;53288;55.922;37.720;2022-09-21T14:18:53;28.38;;;2.70;;
66468;SDS011;53288;55.922;37.720;2022-09-21T14:21:20;6.57;;;2.15;;
66468;SDS011;53288;55.922;37.720;2022-09-21T14:31:51;5.22;;;2.17;;
66468;SDS011;53288;55.922;37.720;2022-09-21T14:34:20;11.25;;;2.53;;
66468;SDS011;53288;55.922;37.720;2022-09-21T14:36:49;6.93;;;2.30;;
66468;SDS011;53288;55.922;37.720;2022-09-21T14:39:24;24.17;;;2.30;;
66468;SDS011;53288;55.922;37.720;2022-09-21T14:41:55;6.65;;;2.80;;
66468;SDS011;53288;55.922;37.720;2022-09-21T14:44:24;15.15;;;2.83;;
66468;SDS011;53288;55.922;37.720;2022-09-21T14:46:58;13.30;;;3.05;;
66468;SDS011;53288;55.922;37.720;2022-09-21T14:52:22;20.17;;;4.30;;
66468;SDS011;53288;55.922;37.720;2022-09-21T15:01:14;22.30;;;5.45;;
66468;SDS011;53288;55.922;37.720;2022-09-21T15:07:00;20.45;;;6.80;;
66468;SDS011;53288;55.922;37.720;2022-09-21T15:12:50;24.90;;;6.35;;
66468;SDS011;53288;55.922;37.720;2022-09-21T15:17:58;26.92;;;6.10;;
66468;SDS011;53288;55.922;37.720;2022-09-21T15:20:29;10.63;;;5.07;;
66468;SDS011;53288;55.922;37.720;2022-09-21T15:22:57;19.98;;;5.88;;
66468;SDS011;53288;55.922;37.720;2022-09-21T15:25:24;15.57;;;5.40;;
66468;SDS011;53288;55.922;37.720;2022-09-21T15:27:55;24.50;;;6.40;;
66468;SDS011;53288;55.922;37.720;2022-09-21T15:30:28;13.93;;;6.40;;
66468;SDS011;53288;55.922;37.720;2022-09-21T15:33:00;29.08;;;6.63;;
66468;SDS011;53288;55.922;37.720;2022-09-21T15:35:27;13.85;;;5.70;;
66468;SDS011;53288;55.922;37.720;2022-09-21T15:37:56;16.55;;;6.95;;
66468;SDS011;53288;55.922;37.720;2022-09-21T15:40:26;17.58;;;5.90;;
66468;SDS011;53288;55.922;37.720;2022-09-21T15:43:05;17.48;;;5.55;;
66468;SDS011;53288;55.922;37.720;2022-09-21T15:45:50;25.05;;;5.32;;
66468;SDS011;53288;55.922;37.720;2022-09-21T15:48:24;29.93;;;9.53;;
66468;SDS011;53288;55.922;37.720;2022-09-21T15:50:58;19.70;;;5.70;;
66468;SDS011;53288;55.922;37.720;2022-09-21T15:53:43;21.80;;;5.72;;
66468;SDS011;53288;55.922;37.720;2022-09-21T15:56:18;11.93;;;7.00;;
66468;SDS011;53288;55.922;37.720;2022-09-21T15:58:50;19.02;;;5.15;;
66468;SDS011;53288;55.922;37.720;2022-09-21T16:01:19;13.05;;;3.95;;
66468;SDS011;53288;55.922;37.720;2022-09-21T16:03:46;17.40;;;4.13;;
66468;SDS011;53288;55.922;37.720;2022-09-21T16:06:17;15.38;;;4.38;;
66468;SDS011;53288;55.922;37.720;2022-09-21T16:08:52;6.75;;;2.97;;
66468;SDS011;53288;55.922;37.720;2022-09-21T16:13:58;10.77;;;3.72;;
66468;SDS011;53288;55.922;37.720;2022-09-21T16:25:31;4.13;;;2.58;;
66468;SDS011;53288;55.922;37.720;2022-09-21T16:28:25;9.80;;;2.58;;
66468;SDS011;53288;55.922;37.720;2022-09-21T16:30:54;2.97;;;2.15;;
66468;SDS011;53288;55.922;37.720;2022-09-21T16:33:33;3.97;;;2.50;;
66468;SDS011;53288;55.922;37.720;2022-09-21T16:36:03;4.85;;;2.35;;
66468;SDS011;53288;55.922;37.720;2022-09-21T16:38:30;12.13;;;2.70;;
66468;SDS011;53288;55.922;37.720;2022-09-21T16:40:58;2.40;;;2.20;;
66468;SDS011;53288;55.922;37.720;2022-09-21T16:43:26;5.68;;;2.42;;
66468;SDS011;53288;55.922;37.720;2022-09-21T16:45:52;4.00;;;1.95;;
66468;SDS011;53288;55.922;37.720;2022-09-21T16:48:18;2.72;;;2.20;;
66468;SDS011;53288;55.922;37.720;2022-09-21T16:50:44;14.45;;;2.50;;
66468;SDS011;53288;55.922;37.720;2022-09-21T16:53:12;5.30;;;2.50;;
66468;SDS011;53288;55.922;37.720;2022-09-21T16:55:40;4.22;;;2.70;;
66468;SDS011;53288;55.922;37.720;2022-09-21T16:58:07;4.38;;;2.72;;
66468;SDS011;53288;55.922;37.720;2022-09-21T17:00:35;7.03;;;2.10;;
66468;SDS011;53288;55.922;37.720;2022-09-21T17:03:04;9.30;;;2.53;;
66468;SDS011;53288;55.922;37.720;2022-09-21T17:05:30;2.80;;;2.08;;
66468;SDS011;53288;55.922;37.720;2022-09-21T17:07:57;4.55;;;2.30;;
66468;SDS011;53288;55.922;37.720;2022-09-21T17:10:30;7.35;;;2.70;;
66468;SDS011;53288;55.922;37.720;2022-09-21T17:13:00;3.97;;;2.58;;
66468;SDS011;53288;55.922;37.720;2022-09-21T17:15:28;4.97;;;2.85;;
66468;SDS011;53288;55.922;37.720;2022-09-21T17:17:56;8.30;;;3.08;;
66468;SDS011;53288;55.922;37.720;2022-09-21T17:20:33;5.15;;;3.05;;
66468;SDS011;53288;55.922;37.720;2022-09-21T17:23:04;11.30;;;3.85;;
66468;SDS011;53288;55.922;37.720;2022-09-21T17:25:30;4.47;;;2.55;;
66468;SDS011;53288;55.922;37.720;2022-09-21T17:28:00;5.75;;;2.95;;
66468;SDS011;53288;55.922;37.720;2022-09-21T17:30:27;6.88;;;4.85;;
66468;SDS011;53288;55.922;37.720;2022-09-21T17:32:54;3.00;;;2.70;;
66468;SDS011;53288;55.922;37.720;2022-09-21T17:35:26;5.43;;;2.65;;
66468;SDS011;53288;55.922;37.720;2022-09-21T17:37:58;6.88;;;2.65;;
66468;SDS011;53288;55.922;37.720;2022-09-21T17:40:28;3.88;;;2.67;;
66468;SDS011;53288;55.922;37.720;2022-09-21T17:42:55;5.75;;;2.15;;
66468;SDS011;53288;55.922;37.720;2022-09-21T17:45:32;7.38;;;2.95;;
66468;SDS011;53288;55.922;37.720;2022-09-21T17:48:11;11.32;;;3.10;;
66468;SDS011;53288;55.922;37.720;2022-09-21T17:50:44;8.13;;;2.28;;
66468;SDS011;53288;55.922;37.720;2022-09-21T17:53:13;3.05;;;2.72;;
66468;SDS011;53288;55.922;37.720;2022-09-21T17:58:56;6.93;;;2.45;;
66468;SDS011;53288;55.922;37.720;2022-09-21T18:01:30;3.83;;;2.75;;
66468;SDS011;53288;55.922;37.720;2022-09-21T18:03:58;4.67;;;2.80;;
66468;SDS011;53288;55.922;37.720;2022-09-21T18:06:27;3.08;;;2.80;;
66468;SDS011;53288;55.922;37.720;2022-09-21T18:08:54;8.85;;;3.50;;
66468;SDS011;53288;55.922;37.720;2022-09-21T18:16:47;18.73;;;3.05;;
66468;SDS011;53288;55.922;37.720;2022-09-21T18:21:48;10.75;;;3.10;;
66468;SDS011;53288;55.922;37.720;2022-09-21T18:26:57;14.52;;;3.08;;
66468;SDS011;53288;55.922;37.720;2022-09-21T18:29:28;11.70;;;4.13;;
66468;SDS011;53288;55.922;37.720;2022-09-21T18:37:28;21.80;;;3.65;;
66468;SDS011;53288;55.922;37.720;2022-09-21T18:41:08;11.50;;;3.38;;
66468;SDS011;53288;55.922;37.720;2022-09-21T18:46:07;21.73;;;4.45;;
66468;SDS011;53288;55.922;37.720;2022-09-21T18:49:15;9.40;;;3.30;;
66468;SDS011;53288;55.922;37.720;2022-09-21T18:54:39;5.15;;;3.63;;
66468;SDS011;53288;55.922;37.720;2022-09-21T18:57:12;6.05;;;3.72;;
66468;SDS011;53288;55.922;37.720;2022-09-21T18:59:39;8.00;;;3.88;;
66468;SDS011;53288;55.922;37.720;2022-09-21T19:02:13;6.72;;;3.22;;